Bluebell, Utah
Current Conditions -  °F | °C
As of 11:53 AM on Tuesday 27 Jan 2015 (Local Time) from KVEL Reporting Station
Broken Clouds Broken Clouds  
Wind Chill: 40°   Ceiling: 10000
Heat Index: 40°   Visibility: 10mi
Dew Point: 26°   Wind: 3mph
Humidity: 58%   Direction: 160°SSE
Pressure: 30.31"   Gusts: NA
Location:  40.36°N, 110.22°W
Report Text: KVEL 271853Z AUTO 16003KT 10SM BKN100 04/M03 A3031 RMK AO2 SLP280 T00441033
Loading
Personal Weather Stations






























Interactive Weather Map New forecast layout! Learn more

10-Day Weather Forecast

Advertisements
Track Severe Weather on mobile